Time;durP1;ratioP1;P1;durP2;ratioP2;P2;SDS_P1;SDS_P2;PMS_P1;PMS_P2;Temp;Humidity;BMP_temperature;BMP_pressure;BME280_temperature;BME280_humidity;BME280_pressure;Samples;Min_cycle;Max_cycle;Signal;HPM_P1;HPM_P2
2021/06/15 00:02:07;;;;;;;3.55;1.10;;;;;;;23.95;44.92;102155.56;4987665;28;20057;-61
2021/06/15 00:04:33;;;;;;;3.10;1.20;;;;;;;23.95;44.91;102131.44;4999867;28;20041;-61
2021/06/15 00:06:58;;;;;;;3.83;1.20;;;;;;;23.95;45.11;102126.91;4987656;28;20452;-61
2021/06/15 00:09:24;;;;;;;3.35;0.90;;;;;;;23.95;44.77;102118.88;4979651;28;20034;-61
2021/06/15 00:11:49;;;;;;;2.75;1.13;;;;;;;23.96;45.06;102111.66;4988362;28;20432;-61
2021/06/15 00:14:15;;;;;;;4.00;1.00;;;;;;;23.96;45.12;102130.41;4988259;28;20030;-61
2021/06/15 00:16:40;;;;;;;2.80;1.20;;;;;;;23.96;45.42;102138.47;4991689;28;20545;-61
2021/06/15 00:19:06;;;;;;;2.58;1.15;;;;;;;23.97;45.40;102150.84;4988393;28;20042;-61
2021/06/15 00:21:31;;;;;;;2.55;1.08;;;;;;;23.96;45.57;102157.22;4988238;28;20061;-61
2021/06/15 00:23:56;;;;;;;2.45;1.05;;;;;;;23.97;45.48;102148.16;4987330;28;20050;-62
2021/06/15 00:26:22;;;;;;;5.03;1.30;;;;;;;23.97;45.12;102158.88;4989197;28;20042;-61
2021/06/15 00:28:47;;;;;;;3.17;1.20;;;;;;;23.97;45.34;102148.97;4989188;28;20044;-61
2021/06/15 00:31:13;;;;;;;2.80;1.10;;;;;;;23.97;45.65;102159.69;4971361;28;20037;-61
2021/06/15 00:33:39;;;;;;;3.70;1.15;;;;;;;23.97;45.58;102140.09;5004812;28;20133;-61
2021/06/15 00:36:04;;;;;;;2.58;1.10;;;;;;;23.96;45.79;102133.91;4989377;28;20042;-61
2021/06/15 00:38:30;;;;;;;3.70;1.35;;;;;;;23.99;45.71;102130.06;4993883;28;20397;-61
2021/06/15 00:40:55;;;;;;;3.50;1.35;;;;;;;23.98;45.34;102141.78;4993876;28;20108;-62
2021/06/15 00:43:21;;;;;;;2.30;1.00;;;;;;;23.97;45.33;102129.38;4992739;28;20043;-61
2021/06/15 00:45:46;;;;;;;2.75;1.00;;;;;;;23.98;45.12;102136.41;4993066;28;20297;-61
2021/06/15 00:48:26;;;;;;;3.13;1.17;;;;;;;23.95;45.21;102134.13;4976862;28;20054;-61
2021/06/15 00:50:52;;;;;;;3.08;1.20;;;;;;;23.97;45.30;102124.03;4992229;28;20125;-61
2021/06/15 00:53:17;;;;;;;3.03;1.30;;;;;;;23.97;45.04;102126.72;4987630;28;20157;-61
2021/06/15 00:55:43;;;;;;;2.38;1.20;;;;;;;23.97;45.10;102119.50;4991921;28;20030;-61
2021/06/15 00:58:08;;;;;;;5.35;1.35;;;;;;;23.97;45.04;102121.34;4996730;28;20030;-61
2021/06/15 01:00:34;;;;;;;2.85;1.40;;;;;;;23.96;45.07;102125.88;4994183;28;20621;-61
2021/06/15 01:02:59;;;;;;;2.17;0.95;;;;;;;23.95;45.29;102126.91;4990555;28;20342;-61
2021/06/15 01:05:25;;;;;;;3.90;1.08;;;;;;;23.97;45.17;102134.75;4991761;28;20038;-61
2021/06/15 01:08:03;;;;;;;3.60;1.30;;;;;;;23.95;45.22;102136.81;4991685;28;20048;-61
2021/06/15 01:10:42;;;;;;;3.58;1.00;;;;;;;23.95;45.20;102136.81;4990371;28;20054;-61
2021/06/15 01:13:29;;;;;;;2.75;1.05;;;;;;;23.95;45.51;102134.94;4976544;28;20061;-61
2021/06/15 01:16:28;;;;;;;3.45;1.67;;;;;;;23.95;45.29;102136.81;4994013;28;20702;-61
2021/06/15 01:19:01;;;;;;;2.60;1.30;;;;;;;23.97;45.33;102135.56;4988879;28;20042;-62
2021/06/15 01:21:28;;;;;;;2.80;1.25;;;;;;;23.97;45.27;102129.38;4987468;28;20034;-61
2021/06/15 01:24:11;;;;;;;3.03;1.15;;;;;;;23.95;45.13;102128.75;4995621;28;20066;-61
2021/06/15 01:26:58;;;;;;;3.20;1.50;;;;;;;23.94;45.33;102141.34;4991396;28;20049;-61
2021/06/15 01:29:34;;;;;;;3.50;1.60;;;;;;;23.95;45.51;102139.47;5020717;22;20065;-72
2021/06/15 01:32:07;;;;;;;2.20;1.02;;;;;;;23.96;45.62;102141.13;4992078;28;20857;-72
2021/06/15 01:34:37;;;;;;;3.95;1.20;;;;;;;23.97;45.46;102150.84;5014620;28;20684;-72
2021/06/15 01:37:28;;;;;;;3.90;1.48;;;;;;;23.93;45.50;102145.03;5004194;28;20038;-73
2021/06/15 01:40:03;;;;;;;2.70;1.10;;;;;;;23.96;45.56;102138.47;4990564;28;20030;-73
2021/06/15 01:42:28;;;;;;;;;;;;;;;23.88;45.62;102144.81;5002287;28;20030;-73
2021/06/15 01:45:08;;;;;;;2.90;1.30;;;;;;;23.95;45.19;102143.00;5007401;28;20273;-73
2021/06/15 01:47:36;;;;;;;3.13;1.13;;;;;;;23.96;45.68;102147.31;5002438;28;20039;-72
2021/06/15 01:50:06;;;;;;;3.38;1.33;;;;;;;23.97;45.42;102164.22;4999428;28;20042;-73
2021/06/15 01:52:37;;;;;;;3.80;1.20;;;;;;;23.95;45.64;102155.56;5010670;28;20034;-73
2021/06/15 01:55:08;;;;;;;3.55;1.17;;;;;;;23.96;45.54;102158.03;5011655;28;20129;-73
2021/06/15 01:57:36;;;;;;;3.15;1.23;;;;;;;23.97;45.51;102162.38;5010845;28;20045;-73
2021/06/15 02:00:10;;;;;;;2.78;1.17;;;;;;;23.95;45.33;102163.59;4999774;28;20044;-72
2021/06/15 02:02:37;;;;;;;3.67;1.50;;;;;;;23.97;45.46;102158.88;5001833;28;20040;-73
2021/06/15 02:05:07;;;;;;;3.42;1.08;;;;;;;23.97;45.59;102161.56;4999673;28;20103;-72
2021/06/15 02:07:37;;;;;;;4.38;1.33;;;;;;;23.97;45.34;102159.69;5000995;28;20038;-72
2021/06/15 02:10:11;;;;;;;2.83;1.02;;;;;;;23.96;45.48;102150.00;4991035;28;20100;-73
2021/06/15 02:12:43;;;;;;;3.75;1.20;;;;;;;23.97;45.63;102143.63;5012901;28;20048;-72
2021/06/15 02:15:11;;;;;;;3.78;1.35;;;;;;;23.97;45.78;102135.56;5015062;28;20042;-73
2021/06/15 02:17:41;;;;;;;2.53;1.13;;;;;;;23.96;45.55;102117.84;5013298;28;20113;-72
2021/06/15 02:20:10;;;;;;;2.88;1.15;;;;;;;23.97;45.34;102118.66;5020183;28;20030;-72
2021/06/15 02:22:36;;;;;;;3.42;1.50;;;;;;;23.98;45.85;102128.38;4992026;28;20065;-72
2021/06/15 02:25:03;;;;;;;3.03;1.30;;;;;;;23.97;45.77;102127.53;5000557;28;20065;-72
2021/06/15 02:27:28;;;;;;;3.53;1.42;;;;;;;23.98;45.79;102133.72;4992982;28;20043;-73
2021/06/15 02:29:56;;;;;;;2.50;0.98;;;;;;;23.97;45.98;102148.16;4995313;28;20053;-73
2021/06/15 02:32:27;;;;;;;3.38;1.30;;;;;;;23.97;46.32;102134.75;4991434;28;20041;-73
2021/06/15 02:34:55;;;;;;;2.47;1.20;;;;;;;23.99;46.36;102132.72;4998930;28;20033;-72
2021/06/15 02:37:27;;;;;;;2.33;1.23;;;;;;;23.98;46.15;102128.38;5008023;28;20042;-73
2021/06/15 02:39:55;;;;;;;2.88;1.35;;;;;;;23.98;46.37;102113.13;5007032;28;20508;-72
2021/06/15 02:42:23;;;;;;;2.60;1.17;;;;;;;23.98;46.46;102115.78;4999715;28;20041;-72
2021/06/15 02:44:51;;;;;;;3.97;1.30;;;;;;;23.98;46.15;102099.72;5001603;28;20038;-72
2021/06/15 02:47:17;;;;;;;3.70;1.48;;;;;;;23.99;46.49;102105.94;5003309;28;20045;-73
2021/06/15 02:49:51;;;;;;;4.22;1.60;;;;;;;23.98;46.05;102101.56;5006166;28;20073;-72
2021/06/15 02:52:35;;;;;;;2.97;1.20;;;;;;;23.95;46.23;102104.63;4999639;28;20030;-73
2021/06/15 02:55:16;;;;;;;2.92;1.30;;;;;;;23.95;46.13;102101.97;4997494;28;20041;-73
2021/06/15 02:57:42;;;;;;;3.65;1.17;;;;;;;23.97;46.13;102094.53;4994927;28;20034;-72
2021/06/15 03:00:11;;;;;;;2.38;1.10;;;;;;;23.97;45.98;102090.00;4996787;28;20029;-73
2021/06/15 03:02:37;;;;;;;2.80;1.20;;;;;;;23.98;46.14;102096.19;4982289;28;20046;-72
2021/06/15 03:05:14;;;;;;;2.28;1.23;;;;;;;23.97;45.93;102089.19;5001505;28;20077;-73
2021/06/15 03:07:40;;;;;;;1.95;1.08;;;;;;;23.97;46.32;102092.69;4983563;28;20125;-73
2021/06/15 03:10:09;;;;;;;4.80;1.35;;;;;;;23.98;46.12;102093.53;4991611;28;20028;-72
2021/06/15 03:12:45;;;;;;;2.67;1.15;;;;;;;23.97;46.06;102097.22;5008554;28;20306;-73
2021/06/15 03:15:14;;;;;;;3.75;1.20;;;;;;;23.98;46.08;102094.34;5006993;28;20465;-73
2021/06/15 03:17:49;;;;;;;2.45;1.00;;;;;;;23.97;46.16;102089.19;5000820;28;20745;-73
2021/06/15 03:20:15;;;;;;;2.95;1.33;;;;;;;23.98;45.98;102090.84;4998449;28;20092;-72
2021/06/15 03:22:50;;;;;;;2.55;1.10;;;;;;;23.98;46.02;102088.16;5008610;28;20078;-73
2021/06/15 03:25:20;;;;;;;2.88;1.10;;;;;;;23.97;45.96;102094.53;5007978;28;20034;-73
2021/06/15 03:27:56;;;;;;;2.80;1.15;;;;;;;23.94;46.14;102090.41;5002968;28;20114;-73
2021/06/15 03:30:23;;;;;;;3.60;1.30;;;;;;;23.97;45.86;102090.00;5001001;28;20128;-73
2021/06/15 03:33:13;;;;;;;2.20;1.13;;;;;;;23.92;46.11;102084.41;4990407;28;20453;-73
2021/06/15 03:35:44;;;;;;;2.58;1.10;;;;;;;23.96;45.84;102087.53;5006869;28;20052;-73
2021/06/15 03:38:12;;;;;;;3.42;1.30;;;;;;;23.97;45.98;102083.81;4998255;28;20029;-73
2021/06/15 03:40:45;;;;;;;3.42;1.20;;;;;;;23.95;46.04;102081.34;5009070;28;20037;-72
2021/06/15 03:43:12;;;;;;;2.45;1.13;;;;;;;23.97;45.98;102075.78;4991063;28;20117;-72
2021/06/15 03:45:46;;;;;;;2.55;1.10;;;;;;;23.94;45.58;102078.84;4989912;28;20038;-72
2021/06/15 03:48:14;;;;;;;3.28;1.55;;;;;;;23.96;45.86;102087.53;4995616;28;20032;-72
2021/06/15 03:50:40;;;;;;;3.17;1.10;;;;;;;23.96;45.65;102087.53;5009159;28;20050;-72
2021/06/15 03:53:09;;;;;;;3.05;1.08;;;;;;;23.96;45.54;102079.50;4988801;28;20048;-72
2021/06/15 03:55:37;;;;;;;2.70;1.30;;;;;;;23.96;45.77;102076.81;4992801;28;20445;-73
2021/06/15 03:58:07;;;;;;;2.22;1.10;;;;;;;23.96;45.86;102071.44;4978776;28;20054;-73
2021/06/15 04:00:35;;;;;;;3.90;1.13;;;;;;;23.95;46.00;102069.78;4998183;28;20041;-72
2021/06/15 04:03:04;;;;;;;2.78;1.40;;;;;;;23.95;46.04;102064.44;4997855;28;20034;-72
2021/06/15 04:05:32;;;;;;;2.22;1.20;;;;;;;23.96;45.66;102063.41;4992392;28;20027;-73
2021/06/15 04:08:01;;;;;;;2.20;1.02;;;;;;;23.95;45.72;102067.94;4993555;28;20452;-72
2021/06/15 04:10:29;;;;;;;2.95;1.13;;;;;;;23.95;45.82;102080.53;4994556;28;20536;-72
2021/06/15 04:12:55;;;;;;;4.10;1.42;;;;;;;23.94;45.60;102090.41;5003709;28;20046;-73
2021/06/15 04:15:25;;;;;;;2.47;1.10;;;;;;;23.95;45.75;102084.03;4993247;28;20030;-72
2021/06/15 04:17:52;;;;;;;2.75;1.30;;;;;;;23.94;45.68;102068.97;5000425;28;20060;-72
2021/06/15 04:20:34;;;;;;;4.35;1.30;;;;;;;23.92;45.83;102067.50;5016585;28;20032;-72
2021/06/15 04:23:03;;;;;;;3.30;1.33;;;;;;;23.94;45.95;102065.47;4989392;28;20068;-72
2021/06/15 04:25:31;;;;;;;3.03;1.20;;;;;;;23.94;45.70;102062.78;5009673;28;20088;-73
2021/06/15 04:28:00;;;;;;;2.90;1.15;;;;;;;23.95;45.71;102056.41;4998734;28;20034;-73
2021/06/15 04:30:26;;;;;;;3.75;1.40;;;;;;;23.94;45.77;102038.66;4994477;28;20046;-73
2021/06/15 04:33:01;;;;;;;3.78;1.40;;;;;;;23.93;45.87;102042.38;5009858;28;20116;-73
2021/06/15 04:35:35;;;;;;;2.80;1.35;;;;;;;23.94;45.64;102054.75;5011096;28;20034;-73
2021/06/15 04:38:06;;;;;;;2.05;1.10;;;;;;;23.94;45.70;102052.06;4987753;28;20341;-72
2021/06/15 04:40:36;;;;;;;2.88;1.33;;;;;;;23.93;45.70;102048.56;4981135;28;20136;-72
2021/06/15 04:43:21;;;;;;;3.92;1.20;;;;;;;23.90;45.87;102052.47;5003279;28;20426;-72
2021/06/15 04:45:48;;;;;;;2.75;1.30;;;;;;;23.94;45.66;102052.06;5004625;28;20460;-73
2021/06/15 04:48:31;;;;;;;4.53;1.50;;;;;;;23.90;46.11;102040.91;5006598;28;20022;-72
2021/06/15 04:50:59;;;;;;;2.78;1.23;;;;;;;23.94;45.96;102038.66;4989208;28;20117;-73
2021/06/15 04:53:28;;;;;;;4.25;1.60;;;;;;;23.94;45.99;102042.16;5007184;28;20067;-72
2021/06/15 04:55:55;;;;;;;4.50;1.27;;;;;;;23.94;45.67;102041.34;4997065;28;20486;-72
2021/06/15 04:58:21;;;;;;;4.05;1.30;;;;;;;23.94;45.94;102031.44;4990227;28;20050;-72
2021/06/15 05:00:48;;;;;;;4.57;1.40;;;;;;;23.95;45.71;102026.91;5014222;28;20144;-73
2021/06/15 05:03:14;;;;;;;2.80;1.15;;;;;;;23.94;45.52;102030.63;4999494;28;20053;-73
2021/06/15 05:05:40;;;;;;;2.53;1.30;;;;;;;23.94;45.80;102049.38;5001371;28;20049;-73
2021/06/15 05:08:08;;;;;;;3.28;1.25;;;;;;;23.94;45.90;102035.97;4982868;28;20042;-73
2021/06/15 05:10:38;;;;;;;2.65;1.10;;;;;;;23.93;45.65;102037.84;5007789;28;20416;-72
2021/06/15 05:13:09;;;;;;;3.50;1.30;;;;;;;23.93;45.88;102034.31;4996885;28;20366;-72
2021/06/15 05:15:36;;;;;;;3.47;1.40;;;;;;;23.93;45.65;102035.16;4992255;28;20039;-72
2021/06/15 05:18:01;;;;;;;2.55;1.10;;;;;;;23.93;45.97;102028.97;5001564;28;20069;-73
2021/06/15 05:20:27;;;;;;;3.03;1.48;;;;;;;23.93;45.81;102032.47;5006737;28;20069;-73
2021/06/15 05:23:20;;;;;;;3.03;1.27;;;;;;;23.89;45.92;102040.09;4990197;28;20038;-72
2021/06/15 05:25:48;;;;;;;3.67;1.52;;;;;;;23.93;45.96;102037.84;4998953;28;20041;-72
2021/06/15 05:28:15;;;;;;;3.20;1.42;;;;;;;23.93;45.61;102034.31;4999293;28;20042;-73
2021/06/15 05:30:40;;;;;;;4.00;1.52;;;;;;;23.92;45.78;102025.47;5018805;28;20093;-72
2021/06/15 05:33:06;;;;;;;3.95;1.48;;;;;;;23.93;45.61;102034.31;4979843;28;20429;-72
2021/06/15 05:35:31;;;;;;;3.83;1.70;;;;;;;23.93;45.67;102035.16;5007236;28;20034;-73
2021/06/15 05:37:57;;;;;;;3.78;1.20;;;;;;;23.93;45.93;102037.00;4991625;28;20045;-73
2021/06/15 05:40:23;;;;;;;1.65;0.93;;;;;;;23.93;45.52;102037.00;5011358;28;20117;-71
2021/06/15 05:42:48;;;;;;;2.67;1.13;;;;;;;23.93;45.80;102029.78;5011822;28;20030;-72
2021/06/15 05:45:15;;;;;;;2.35;1.27;;;;;;;23.92;45.84;102030.81;5009982;28;20505;-72
2021/06/15 05:47:43;;;;;;;3.17;1.33;;;;;;;23.93;45.87;102040.50;5007748;28;20401;-72
2021/06/15 05:50:09;;;;;;;3.75;1.30;;;;;;;23.93;45.69;102031.66;5010435;28;20034;-72
2021/06/15 05:52:35;;;;;;;3.92;1.75;;;;;;;23.93;46.02;102028.97;5009672;28;20042;-72
2021/06/15 05:55:02;;;;;;;3.20;1.38;;;;;;;23.93;45.71;102029.78;5010110;28;20038;-72
2021/06/15 05:57:30;;;;;;;2.80;1.15;;;;;;;23.92;45.73;102022.78;5010087;28;20065;-72
2021/06/15 05:59:57;;;;;;;3.15;1.10;;;;;;;23.92;45.90;102025.47;5008812;28;20116;-73
2021/06/15 06:02:22;;;;;;;2.65;1.25;;;;;;;23.93;45.47;102034.31;4993304;28;20115;-73
2021/06/15 06:10:08;;;;;;;4.43;1.15;;;;;;;23.92;45.42;102027.31;5004681;28;20096;-74
2021/06/15 06:12:34;;;;;;;3.88;1.40;;;;;;;23.91;45.62;102021.13;4989550;28;20124;-74
2021/06/15 06:15:00;;;;;;;2.97;1.10;;;;;;;23.91;45.36;102015.75;5006660;28;20457;-74
2021/06/15 06:17:26;;;;;;;2.88;1.20;;;;;;;23.92;45.63;102009.38;4983564;28;20044;-74
2021/06/15 06:19:52;;;;;;;2.88;1.25;;;;;;;23.90;45.17;102004.22;4991989;28;20120;-75
2021/06/15 06:22:19;;;;;;;3.28;1.20;;;;;;;23.90;45.14;101998.84;5003104;28;20377;-74
2021/06/15 06:24:46;;;;;;;3.45;1.38;;;;;;;23.90;45.29;101995.34;5003992;28;20504;-74
2021/06/15 06:27:12;;;;;;;2.85;1.10;;;;;;;23.89;45.40;102002.56;5018236;28;20470;-74
2021/06/15 06:29:37;;;;;;;2.35;1.00;;;;;;;23.89;45.22;101994.53;4999874;28;20161;-73
2021/06/15 06:32:04;;;;;;;3.83;1.40;;;;;;;23.88;45.27;102000.91;4980334;28;20483;-75
2021/06/15 06:34:29;;;;;;;4.45;1.35;;;;;;;23.88;45.31;102000.91;4989062;28;20042;-74
2021/06/15 06:36:55;;;;;;;4.65;1.30;;;;;;;23.87;45.24;101999.25;5009466;28;20041;-73
2021/06/15 06:39:20;;;;;;;3.40;1.20;;;;;;;23.87;45.26;102001.09;5009437;28;20041;-73
2021/06/15 06:41:45;;;;;;;2.88;1.33;;;;;;;23.87;45.67;101998.44;5009058;28;20128;-75
2021/06/15 06:44:11;;;;;;;5.43;1.58;;;;;;;23.87;45.75;101988.53;5012570;28;20072;-78
2021/06/15 06:46:37;;;;;;;4.65;1.85;;;;;;;23.87;45.84;101972.47;5021779;28;20037;-76
2021/06/15 06:49:03;;;;;;;5.80;1.42;;;;;;;23.86;45.33;101984.22;5009080;28;20027;-74
2021/06/15 06:51:29;;;;;;;5.28;1.38;;;;;;;23.86;45.46;101981.53;5003908;28;20038;-74
2021/06/15 06:53:55;;;;;;;6.00;1.50;;;;;;;23.87;45.62;101985.84;5004670;28;20114;-73
2021/06/15 06:56:21;;;;;;;6.10;1.60;;;;;;;23.86;45.62;101992.25;5002008;28;20500;-73
2021/06/15 06:58:47;;;;;;;5.68;1.50;;;;;;;23.87;45.58;101991.22;5003293;28;20097;-74
2021/06/15 07:01:13;;;;;;;6.57;1.60;;;;;;;23.88;45.71;101978.66;5007940;28;20038;-73
2021/06/15 07:03:39;;;;;;;19.38;1.92;;;;;;;23.88;45.47;101982.16;5009290;28;20093;-73
2021/06/15 07:06:05;;;;;;;5.38;1.77;;;;;;;23.88;45.46;101975.97;5009473;28;20060;-73
2021/06/15 07:08:30;;;;;;;4.68;1.48;;;;;;;23.87;45.46;101980.50;5008325;28;20044;-73
2021/06/15 07:10:56;;;;;;;6.40;1.88;;;;;;;23.88;45.29;101974.09;5007869;28;20030;-74
2021/06/15 07:13:21;;;;;;;5.07;1.63;;;;;;;23.88;45.46;101970.59;5006553;28;20469;-79
2021/06/15 07:15:47;;;;;;;4.80;1.63;;;;;;;23.90;45.21;101973.91;4987413;28;20053;-78
2021/06/15 07:18:12;;;;;;;4.53;1.55;;;;;;;23.88;45.01;101976.78;5004133;28;20037;-77
2021/06/15 07:20:38;;;;;;;6.20;1.55;;;;;;;23.86;45.04;101976.16;4999690;28;20038;-81
2021/06/15 07:23:04;;;;;;;9.10;1.75;;;;;;;23.84;44.68;101978.22;4972346;28;20409;-80
2021/06/15 07:25:30;;;;;;;7.82;1.60;;;;;;;23.83;44.33;101978.41;5008727;28;20176;-80
2021/06/15 07:27:57;;;;;;;8.32;1.70;;;;;;;23.81;44.20;101977.75;5011899;28;20532;-80
2021/06/15 07:30:23;;;;;;;11.55;2.13;;;;;;;23.79;43.68;101974.44;5011720;28;20060;-79
2021/06/15 07:32:50;;;;;;;7.97;2.15;;;;;;;23.73;43.24;101970.72;5008056;28;20401;-76
2021/06/15 07:35:16;;;;;;;7.25;1.90;;;;;;;23.69;42.59;101968.63;5007202;28;20030;-73
2021/06/15 07:37:41;;;;;;;7.03;1.70;;;;;;;23.64;42.25;101971.88;4983080;28;20346;-78
2021/06/15 07:40:10;;;;;;;9.27;2.33;;;;;;;23.61;42.09;101972.28;4979882;28;20065;-81
2021/06/15 07:42:36;;;;;;;9.13;2.00;;;;;;;23.57;41.86;101971.84;4975969;28;20117;-79
2021/06/15 07:45:02;;;;;;;13.70;1.98;;;;;;;23.53;42.18;101965.19;4983484;28;20133;-77
2021/06/15 07:47:27;;;;;;;8.23;1.80;;;;;;;23.53;42.17;101962.53;4959980;28;20041;-81
2021/06/15 07:49:53;;;;;;;5.57;1.60;;;;;;;23.52;42.24;101968.91;4972101;28;20045;-78
2021/06/15 07:52:27;;;;;;;6.22;1.95;;;;;;;23.52;42.10;101960.03;4976318;28;20370;-80
2021/06/15 07:54:52;;;;;;;9.00;1.80;;;;;;;23.53;42.33;101953.66;5001315;28;20116;-81
2021/06/15 07:57:17;;;;;;;8.63;2.70;;;;;;;23.55;42.63;101954.28;5001411;28;20037;-78
2021/06/15 07:59:43;;;;;;;6.40;2.30;;;;;;;23.55;42.45;101952.44;4999156;28;20451;-68
2021/06/15 08:02:08;;;;;;;10.07;2.90;;;;;;;23.57;42.65;101949.59;5004356;28;20092;-69
2021/06/15 08:04:34;;;;;;;13.95;2.30;;;;;;;23.58;42.72;101940.53;4988657;28;20048;-67
2021/06/15 08:06:59;;;;;;;8.13;2.05;;;;;;;23.59;42.52;101940.34;5003818;28;20044;-70
2021/06/15 08:09:25;;;;;;;7.53;2.40;;;;;;;23.59;42.64;101931.47;4988543;28;20159;-67
2021/06/15 08:11:50;;;;;;;7.68;2.35;;;;;;;23.61;42.79;101932.09;5003892;28;20037;-68
2021/06/15 08:14:16;;;;;;;6.78;1.85;;;;;;;23.62;42.37;101924.88;4989768;28;20042;-67
2021/06/15 08:16:41;;;;;;;11.90;2.40;;;;;;;23.61;41.79;101924.06;5009024;28;20034;-67
2021/06/15 08:19:07;;;;;;;9.93;1.65;;;;;;;23.59;41.93;101923.44;4993360;28;20145;-67
2021/06/15 08:21:32;;;;;;;7.50;1.75;;;;;;;23.58;41.69;101924.47;5015991;28;20065;-66
2021/06/15 08:23:58;;;;;;;7.00;1.77;;;;;;;23.55;41.67;101920.28;5006328;28;20355;-72
2021/06/15 08:26:23;;;;;;;8.85;1.80;;;;;;;23.53;41.16;101922.34;5007471;28;20196;-65
2021/06/15 08:28:49;;;;;;;10.27;1.67;;;;;;;23.51;41.51;101918.19;5005301;28;20042;-68
2021/06/15 08:31:14;;;;;;;8.18;1.90;;;;;;;23.49;41.01;101912.19;5006560;28;20042;-68
2021/06/15 08:33:40;;;;;;;8.23;2.00;;;;;;;23.48;40.88;101918.59;5008114;28;20030;-70
2021/06/15 08:36:06;;;;;;;7.05;1.75;;;;;;;23.44;41.05;101909.28;4988374;28;20029;-70
2021/06/15 08:38:31;;;;;;;10.55;2.03;;;;;;;23.40;40.53;101906.19;5007274;28;20045;-68
2021/06/15 08:40:57;;;;;;;7.53;2.05;;;;;;;23.38;40.80;101902.06;5005005;28;20048;-67
2021/06/15 08:43:22;;;;;;;7.97;1.90;;;;;;;23.36;40.72;101904.09;4973906;28;20042;-69
2021/06/15 08:45:49;;;;;;;5.78;1.67;;;;;;;23.36;40.41;101901.44;5005995;28;20037;-69
2021/06/15 08:48:14;;;;;;;7.03;2.00;;;;;;;23.33;40.42;101897.25;5006092;28;20060;-68
2021/06/15 08:50:43;;;;;;;6.07;1.83;;;;;;;23.33;40.60;101894.59;5006957;28;20667;-68
2021/06/15 08:53:08;;;;;;;7.22;2.15;;;;;;;23.31;40.46;101877.91;5005830;28;20069;-68
2021/06/15 08:55:35;;;;;;;6.43;1.80;;;;;;;23.33;40.60;101877.69;4995564;28;20120;-69
2021/06/15 08:58:22;;;;;;;7.82;1.85;;;;;;;23.29;40.90;101872.75;5001521;28;20494;-68
2021/06/15 09:00:47;;;;;;;8.50;1.95;;;;;;;23.34;41.06;101874.00;5007243;28;20243;-69
2021/06/15 09:03:14;;;;;;;6.38;1.77;;;;;;;23.34;41.22;101860.59;5005171;28;20477;-69
2021/06/15 09:05:41;;;;;;;6.22;1.77;;;;;;;23.36;40.91;101866.63;5018403;28;20030;-68
2021/06/15 09:08:12;;;;;;;8.88;1.80;;;;;;;23.37;41.27;101860.25;5011488;28;20046;-69
2021/06/15 09:10:40;;;;;;;6.93;1.80;;;;;;;23.37;41.04;101850.34;5011334;28;20026;-69
2021/06/15 09:13:07;;;;;;;7.72;2.03;;;;;;;23.37;41.16;101842.31;5012035;28;20104;-68
2021/06/15 09:15:33;;;;;;;3.72;1.42;;;;;;;23.37;41.31;101850.34;5004995;28;20121;-68
2021/06/15 09:17:59;;;;;;;4.43;1.92;;;;;;;23.38;41.11;101843.16;5018304;28;20484;-69
2021/06/15 09:20:31;;;;;;;9.85;2.38;;;;;;;23.37;41.74;101836.97;5025355;28;20114;-68
2021/06/15 09:23:03;;;;;;;6.70;1.60;;;;;;;23.39;41.89;101834.09;5011997;28;20041;-68
2021/06/15 09:25:30;;;;;;;5.72;1.83;;;;;;;23.39;42.06;101834.91;5015850;28;20057;-68
2021/06/15 09:27:58;;;;;;;6.85;1.95;;;;;;;23.40;41.94;101833.88;5010031;28;20478;-69
2021/06/15 09:30:26;;;;;;;7.55;2.03;;;;;;;23.41;42.17;101826.69;5008304;28;20544;-69
2021/06/15 09:32:53;;;;;;;8.30;2.13;;;;;;;23.41;42.46;101826.69;5006191;28;20037;-67
2021/06/15 09:35:28;;;;;;;7.13;2.20;;;;;;;23.41;42.69;101816.78;4990371;28;20404;-68
2021/06/15 09:37:56;;;;;;;5.55;2.22;;;;;;;23.41;42.88;101821.31;4994646;28;20074;-69
2021/06/15 09:40:31;;;;;;;6.30;2.50;;;;;;;23.40;42.88;101828.53;5011192;28;20038;-68
2021/06/15 09:42:56;;;;;;;;;;;;;;;23.34;43.09;101820.44;5009383;28;20018;-68
2021/06/15 09:45:25;;;;;;;6.32;2.67;;;;;;;23.39;43.31;101818.03;5009096;28;20560;-68
2021/06/15 09:47:51;;;;;;;6.18;2.63;;;;;;;23.39;43.96;101818.84;5007633;28;20022;-68
2021/06/15 09:50:20;;;;;;;7.32;3.08;;;;;;;23.39;43.81;101812.66;5004715;28;20036;-68
2021/06/15 09:52:46;;;;;;;7.45;2.70;;;;;;;23.40;44.40;101817.00;4992642;28;20026;-68
2021/06/15 09:55:11;;;;;;;5.80;2.60;;;;;;;23.40;44.19;101806.28;5013328;28;20037;-68
2021/06/15 09:57:40;;;;;;;7.55;2.45;;;;;;;23.40;44.55;101806.28;5001774;28;20026;-67
2021/06/15 10:00:08;;;;;;;5.85;2.17;;;;;;;23.40;45.12;101803.59;5014583;28;20026;-69
2021/06/15 10:02:35;;;;;;;6.25;2.35;;;;;;;23.40;44.76;101798.25;4999359;28;20045;-68
2021/06/15 10:05:19;;;;;;;7.28;2.25;;;;;;;23.39;44.92;101793.91;5009077;28;20105;-68
2021/06/15 10:07:44;;;;;;;6.80;2.65;;;;;;;23.39;44.78;101792.06;5000638;28;20050;-68
2021/06/15 10:10:10;;;;;;;8.70;2.65;;;;;;;23.39;44.64;101781.34;4999850;28;20152;-71
2021/06/15 10:12:36;;;;;;;6.05;2.33;;;;;;;23.40;45.17;101782.19;5012454;28;20033;-68
2021/06/15 10:15:03;;;;;;;6.68;2.63;;;;;;;23.40;45.06;101783.00;4990994;28;20393;-68
2021/06/15 10:17:29;;;;;;;8.07;2.67;;;;;;;23.40;45.20;101777.66;5007987;28;20029;-67
2021/06/15 10:19:55;;;;;;;5.25;2.30;;;;;;;23.41;45.20;101770.44;5015718;28;20543;-68
2021/06/15 10:22:21;;;;;;;8.70;2.30;;;;;;;23.40;45.19;101766.94;5017497;28;20033;-68
2021/06/15 10:24:49;;;;;;;7.10;2.42;;;;;;;23.41;45.20;101762.41;5017808;28;20535;-68
2021/06/15 10:27:14;;;;;;;9.55;2.53;;;;;;;23.39;45.28;101765.28;4995932;28;20038;-69
2021/06/15 10:29:42;;;;;;;5.32;2.00;;;;;;;23.40;45.11;101755.41;5021933;28;20049;-68
2021/06/15 10:32:22;;;;;;;7.72;2.10;;;;;;;23.37;45.23;101751.28;4986722;28;20117;-70
2021/06/15 10:34:58;;;;;;;7.35;2.50;;;;;;;23.37;45.16;101756.63;5002601;28;20041;-70
2021/06/15 10:37:36;;;;;;;8.23;2.38;;;;;;;23.35;45.15;101753.31;5009619;28;20045;-69
2021/06/15 10:40:21;;;;;;;9.93;2.30;;;;;;;23.32;45.26;101743.00;4986603;28;20032;-68
2021/06/15 10:43:21;;;;;;;7.45;2.05;;;;;;;23.30;44.98;101740.53;4992489;28;20030;-67
2021/06/15 10:45:51;;;;;;;8.05;2.20;;;;;;;23.33;45.02;101735.78;4999018;28;20030;-68
2021/06/15 10:48:17;;;;;;;5.63;2.10;;;;;;;23.32;45.16;101737.66;4990984;28;20022;-68
2021/06/15 10:50:52;;;;;;;6.68;2.35;;;;;;;23.30;45.08;101713.75;5002186;28;20374;-68
2021/06/15 10:53:20;;;;;;;6.85;2.50;;;;;;;23.32;45.15;101716.22;5011838;28;20037;-69
2021/06/15 10:56:00;;;;;;;4.75;2.03;;;;;;;23.31;45.46;101709.22;5013434;28;20040;-68
2021/06/15 10:58:44;;;;;;;6.25;2.20;;;;;;;23.29;45.26;101709.44;4999428;28;20080;-68
2021/06/15 11:01:13;;;;;;;;;;;;;;;23.24;45.16;101700.34;5001660;28;20128;-67
2021/06/15 11:03:50;;;;;;;5.03;1.90;;;;;;;23.29;44.91;101689.84;5011122;28;19913;-69
2021/06/15 11:06:18;;;;;;;6.85;2.08;;;;;;;23.31;44.72;101691.31;5001148;28;20065;-67
2021/06/15 11:08:44;;;;;;;6.82;2.42;;;;;;;23.33;44.78;101688.44;5002372;28;20038;-68
2021/06/15 11:11:15;;;;;;;8.20;2.67;;;;;;;23.33;44.87;101684.91;5017038;28;20040;-68
2021/06/15 11:13:56;;;;;;;5.78;2.17;;;;;;;23.35;44.65;101674.84;4999569;28;20034;-69
2021/06/15 11:16:38;;;;;;;8.50;1.88;;;;;;;23.33;44.71;101669.69;4993658;28;20121;-68
2021/06/15 11:19:09;;;;;;;8.35;2.20;;;;;;;23.36;44.49;101668.47;4990857;28;20030;-68
2021/06/15 11:21:44;;;;;;;5.40;2.20;;;;;;;23.36;44.13;101663.94;4990613;28;20309;-69
2021/06/15 11:24:39;;;;;;;5.05;1.77;;;;;;;23.33;44.29;101656.31;5021777;28;20193;-68
2021/06/15 11:27:18;;;;;;;5.15;1.77;;;;;;;23.36;44.29;101657.78;4980236;28;20034;-68
2021/06/15 11:29:47;;;;;;;7.18;1.92;;;;;;;23.39;44.03;101652.00;4990228;28;20471;-68
2021/06/15 11:32:12;;;;;;;7.18;2.03;;;;;;;23.39;44.47;101641.28;5013605;28;20026;-68
2021/06/15 11:34:39;;;;;;;6.82;2.03;;;;;;;23.42;44.45;101632.84;5011660;28;20037;-68
2021/06/15 11:37:20;;;;;;;4.35;1.98;;;;;;;23.41;44.68;101637.38;5007717;28;20076;-68
2021/06/15 11:39:45;;;;;;;9.25;1.80;;;;;;;23.44;43.51;101630.78;5009381;28;20109;-68
2021/06/15 11:42:27;;;;;;;6.63;1.65;;;;;;;23.41;42.83;101624.00;5007730;28;20471;-68